Time;durP1;ratioP1;P1;durP2;ratioP2;P2;SDS_P1;SDS_P2;PMS_P1;PMS_P2;Temp;Humidity;BMP_temperature;BMP_pressure;BME280_temperature;BME280_humidity;BME280_pressure;Samples;Min_cycle;Max_cycle;Signal;HPM_P1;HPM_P2
2022/03/16 00:01:14;;;;;;;11.40;7.40;;;6.00;99.90;;;6.62;100.00;98843.56;5015517;28;20493;-75
2022/03/16 00:03:45;;;;;;;10.57;8.17;;;6.00;99.90;;;6.56;100.00;98839.75;5023051;28;20492;-75
2022/03/16 00:06:15;;;;;;;12.30;7.70;;;5.80;99.90;;;6.56;100.00;98839.75;5014092;28;20466;-76
2022/03/16 00:08:45;;;;;;;14.03;9.10;;;5.70;99.90;;;6.50;100.00;98845.50;5017648;28;20517;-75
2022/03/16 00:11:15;;;;;;;11.40;8.23;;;5.80;99.90;;;6.48;100.00;98841.44;5014176;28;20462;-75
2022/03/16 00:13:45;;;;;;;12.60;9.13;;;5.70;99.90;;;6.47;100.00;98851.00;5013492;28;20498;-76
2022/03/16 00:16:15;;;;;;;12.33;9.10;;;5.70;99.90;;;6.44;100.00;98843.50;5013717;28;20532;-76
2022/03/16 00:18:46;;;;;;;11.00;7.53;;;5.80;99.90;;;6.42;100.00;98847.97;5014771;28;20476;-76
2022/03/16 00:21:16;;;;;;;9.73;6.93;;;5.70;99.90;;;6.40;100.00;98847.31;5012319;28;20588;-75
2022/03/16 00:23:47;;;;;;;19.40;8.63;;;5.60;99.90;;;6.38;100.00;98841.47;5013785;28;20974;-76
2022/03/16 00:26:17;;;;;;;11.37;7.63;;;5.60;99.90;;;6.37;100.00;98847.59;5015045;28;20508;-76
2022/03/16 00:28:47;;;;;;;14.23;7.83;;;5.60;99.90;;;6.34;100.00;98849.66;5016396;28;20656;-76
2022/03/16 00:31:17;;;;;;;14.27;8.63;;;5.50;99.90;;;6.32;100.00;98857.59;5013750;28;20543;-75
2022/03/16 00:33:48;;;;;;;10.53;7.70;;;5.50;99.90;;;6.30;100.00;98859.50;5014639;28;20493;-75
2022/03/16 00:36:21;;;;;;;13.67;8.50;;;5.60;99.90;;;6.30;100.00;98859.50;5013740;28;20831;-76
2022/03/16 00:38:50;;;;;;;13.63;8.40;;;5.50;99.90;;;6.31;100.00;98860.34;5016684;28;20957;-76
2022/03/16 00:41:19;;;;;;;13.83;9.33;;;5.50;99.90;;;6.28;100.00;98861.41;5012950;28;20457;-75
2022/03/16 00:43:49;;;;;;;12.57;8.43;;;5.50;99.90;;;6.29;100.00;98859.63;5014822;28;20556;-76
2022/03/16 00:46:18;;;;;;;12.57;7.50;;;5.50;99.90;;;6.28;100.00;98871.00;5012540;28;20462;-75
2022/03/16 00:48:48;;;;;;;15.03;8.63;;;5.50;99.90;;;6.30;100.00;98859.50;5015959;28;20470;-75
2022/03/16 00:51:16;;;;;;;13.03;7.87;;;5.50;99.90;;;6.27;100.00;98865.00;5012491;28;20531;-75
2022/03/16 00:53:46;;;;;;;14.27;8.83;;;5.50;99.90;;;6.27;100.00;98867.59;5014436;28;20506;-75
2022/03/16 00:56:16;;;;;;;13.47;8.37;;;5.60;99.90;;;6.25;100.00;98866.88;5016233;28;20494;-76
2022/03/16 00:58:46;;;;;;;12.63;8.10;;;5.60;99.90;;;6.25;100.00;98861.69;5013677;28;20469;-75
2022/03/16 01:01:16;;;;;;;13.03;9.07;;;5.50;99.90;;;6.25;100.00;98866.09;5015272;28;20593;-75
2022/03/16 01:03:47;;;;;;;15.23;8.70;;;5.50;99.90;;;6.19;100.00;98864.84;5017812;28;20456;-75
2022/03/16 01:06:17;;;;;;;16.93;8.60;;;5.60;99.90;;;6.20;100.00;98858.72;5015819;28;20870;-75
2022/03/16 01:08:47;;;;;;;14.83;8.93;;;5.60;99.90;;;6.20;100.00;98858.72;5018820;28;21199;-75
2022/03/16 01:11:18;;;;;;;13.57;8.77;;;5.50;99.90;;;6.20;100.00;98853.53;5018241;28;20527;-75
2022/03/16 01:13:48;;;;;;;11.57;8.17;;;5.50;99.90;;;6.20;100.00;98853.53;5015529;28;20551;-76
2022/03/16 01:16:17;;;;;;;16.63;9.73;;;5.50;99.90;;;6.22;100.00;98848.16;5015239;28;20459;-76
2022/03/16 01:18:50;;;;;;;19.20;9.90;;;5.50;99.90;;;6.20;100.00;98853.53;5014076;28;20458;-75
2022/03/16 01:21:20;;;;;;;15.33;9.93;;;5.50;99.90;;;6.20;100.00;98858.72;5011487;28;20458;-75
2022/03/16 01:23:52;;;;;;;14.03;8.93;;;5.50;99.90;;;6.20;100.00;98848.31;5017130;28;20464;-75
2022/03/16 01:26:21;;;;;;;11.90;7.83;;;5.60;99.90;;;6.22;100.00;98861.16;5013125;28;20502;-75
2022/03/16 01:28:50;;;;;;;13.23;9.07;;;5.50;99.90;;;6.21;100.00;98854.34;5015804;28;20838;-75
2022/03/16 01:31:21;;;;;;;15.83;9.97;;;5.60;99.90;;;6.24;100.00;98849.69;5014816;28;20494;-76
2022/03/16 01:33:52;;;;;;;21.43;9.93;;;5.50;99.90;;;6.24;100.00;98849.69;5016468;28;21000;-76
2022/03/16 01:36:22;;;;;;;15.57;8.93;;;5.50;99.90;;;6.24;100.00;98847.09;5014803;28;20498;-76
2022/03/16 01:38:51;;;;;;;13.07;7.77;;;5.50;99.90;;;6.23;100.00;98848.03;5011659;28;20478;-76
2022/03/16 01:41:21;;;;;;;14.50;7.53;;;5.70;99.90;;;6.18;100.00;98847.63;5014073;28;20599;-76
2022/03/16 01:43:54;;;;;;;13.43;7.93;;;5.70;99.90;;;6.16;100.00;98849.56;5012463;28;20476;-75
2022/03/16 01:46:24;;;;;;;12.13;6.93;;;5.60;99.90;;;6.18;100.00;98850.22;5013727;28;20469;-75
2022/03/16 01:48:57;;;;;;;10.50;7.43;;;5.60;99.90;;;6.19;100.00;98848.44;5013806;28;20450;-75
2022/03/16 01:51:27;;;;;;;11.20;7.50;;;5.50;99.90;;;6.17;100.00;98851.22;5011888;28;20467;-75
2022/03/16 01:53:56;;;;;;;9.67;6.40;;;5.50;99.90;;;6.17;100.00;98853.81;5011426;28;20538;-76
2022/03/16 01:56:26;;;;;;;8.60;6.10;;;5.50;99.90;;;6.15;100.00;98849.69;5012638;28;20497;-75
2022/03/16 01:58:56;;;;;;;11.80;6.77;;;5.40;99.90;;;6.17;100.00;98858.16;5012422;28;20466;-76
2022/03/16 02:01:26;;;;;;;7.77;6.00;;;5.50;99.90;;;6.18;100.00;98855.41;5015317;28;20472;-76
2022/03/16 02:03:59;;;;;;;9.80;6.23;;;5.50;99.90;;;6.20;100.00;98850.94;5016624;28;20449;-76
2022/03/16 02:06:29;;;;;;;16.63;6.80;;;5.40;99.90;;;6.20;100.00;98853.53;5016196;28;20838;-76
2022/03/16 02:08:59;;;;;;;8.30;6.13;;;5.40;99.90;;;6.21;100.00;98855.16;5011241;28;20458;-75
2022/03/16 02:11:29;;;;;;;9.10;5.77;;;5.40;99.90;;;6.21;100.00;98854.34;5011551;28;20461;-76
2022/03/16 02:13:58;;;;;;;11.60;6.43;;;5.50;99.90;;;6.21;100.00;98856.94;5011588;28;21015;-76
2022/03/16 02:16:28;;;;;;;13.37;6.30;;;5.50;99.90;;;6.19;100.00;98858.84;5013916;28;20458;-76
2022/03/16 02:18:59;;;;;;;10.37;6.40;;;5.50;99.90;;;6.22;100.00;98855.97;5013131;28;20833;-76
2022/03/16 02:21:31;;;;;;;8.80;6.67;;;5.40;99.90;;;6.20;100.00;98863.91;5012345;28;20526;-75
2022/03/16 02:24:03;;;;;;;7.60;5.63;;;5.40;99.90;;;6.23;100.00;98860.22;5010440;28;20845;-76
2022/03/16 02:26:32;;;;;;;12.90;6.30;;;5.50;99.90;;;6.22;100.00;98861.97;5010326;28;21034;-76
2022/03/16 02:29:02;;;;;;;10.27;5.93;;;5.50;99.90;;;6.23;100.00;98861.03;5015393;28;20467;-75
2022/03/16 02:31:31;;;;;;;7.70;5.60;;;5.50;99.90;;;6.25;100.00;98866.09;5014783;28;20466;-75
2022/03/16 02:34:01;;;;;;;8.53;6.10;;;5.40;99.90;;;6.25;100.00;98861.69;5011106;28;21132;-76
2022/03/16 02:36:30;;;;;;;8.50;5.57;;;5.50;99.90;;;6.25;100.00;98861.69;5013565;28;20480;-76
2022/03/16 02:39:02;;;;;;;11.27;6.17;;;5.50;99.90;;;6.23;100.00;98857.59;5012916;28;20476;-76
2022/03/16 02:41:33;;;;;;;9.63;5.87;;;5.50;99.90;;;6.19;100.00;98857.06;5011237;28;20460;-76
2022/03/16 02:44:02;;;;;;;9.63;6.63;;;5.50;99.90;;;6.21;100.00;98856.94;5012972;28;20481;-76
2022/03/16 02:46:32;;;;;;;8.20;5.60;;;5.50;99.90;;;6.23;100.00;98861.03;5012110;28;20477;-76
2022/03/16 02:49:02;;;;;;;11.13;6.87;;;5.50;99.90;;;6.20;100.00;98858.72;5013518;28;20920;-75
2022/03/16 02:51:32;;;;;;;8.40;6.00;;;5.50;99.90;;;6.18;100.00;98852.81;5013640;28;20465;-76
2022/03/16 02:54:05;;;;;;;7.73;5.67;;;5.60;99.90;;;6.20;100.00;98852.69;5012518;28;20467;-75
2022/03/16 02:56:35;;;;;;;10.60;6.47;;;5.50;99.90;;;6.17;100.00;98840.81;5013562;28;20474;-76
2022/03/16 02:59:06;;;;;;;8.20;6.00;;;5.50;99.90;;;6.17;100.00;98843.41;5013693;28;20473;-76
2022/03/16 03:01:36;;;;;;;10.20;6.50;;;5.50;99.90;;;6.17;100.00;98840.81;5016994;28;20567;-75
2022/03/16 03:04:06;;;;;;;9.73;6.50;;;5.40;99.90;;;6.17;100.00;98853.81;5019388;28;20465;-76
2022/03/16 03:06:37;;;;;;;9.00;6.03;;;5.50;99.90;;;6.16;100.00;98854.75;5018879;28;20450;-76
2022/03/16 03:09:08;;;;;;;8.27;6.20;;;5.50;99.90;;;6.15;100.00;98850.50;5018123;28;20937;-75
2022/03/16 03:11:37;;;;;;;7.10;5.60;;;5.50;99.90;;;6.14;100.00;98851.50;5020639;28;20868;-75
2022/03/16 03:14:06;;;;;;;8.80;5.80;;;5.40;99.90;;;6.10;100.00;98852.72;5019144;28;20977;-75
2022/03/16 03:16:36;;;;;;;8.07;5.50;;;5.40;99.90;;;6.09;100.00;98851.06;5019670;28;20518;-75
2022/03/16 03:19:07;;;;;;;8.07;5.30;;;5.30;99.90;;;6.09;100.00;98851.06;5019810;28;20918;-75
2022/03/16 03:21:35;;;;;;;8.73;5.70;;;5.40;99.90;;;6.11;100.00;98849.16;5017094;28;20478;-76
2022/03/16 03:24:08;;;;;;;10.63;5.70;;;5.40;99.90;;;6.10;100.00;98860.50;5016183;28;21049;-76
2022/03/16 03:26:39;;;;;;;7.87;5.37;;;5.40;99.90;;;6.10;100.00;98863.09;5018019;28;20797;-76
2022/03/16 03:29:09;;;;;;;9.57;6.07;;;5.40;99.90;;;6.10;100.00;98865.69;5018495;28;20457;-75
2022/03/16 03:31:39;;;;;;;10.70;6.30;;;5.30;99.90;;;6.08;100.00;98871.03;5021360;28;20450;-76
2022/03/16 03:34:09;;;;;;;9.60;6.60;;;5.40;99.90;;;6.10;100.00;98873.50;5014062;28;20475;-76
2022/03/16 03:36:40;;;;;;;9.77;6.60;;;5.30;99.90;;;6.08;100.00;98876.22;5014271;28;20481;-75
2022/03/16 03:39:11;;;;;;;10.27;6.27;;;5.40;99.90;;;6.09;100.00;98879.63;5014639;28;20482;-76
2022/03/16 03:41:40;;;;;;;7.17;5.40;;;5.40;99.90;;;6.07;100.00;98882.34;5013076;28;20954;-75
2022/03/16 03:44:10;;;;;;;8.47;6.00;;;5.40;99.90;;;6.11;100.00;98874.31;5014895;28;20525;-76
2022/03/16 03:46:40;;;;;;;11.27;6.63;;;5.40;99.90;;;6.10;100.00;98875.25;5015847;28;20529;-75
2022/03/16 03:49:09;;;;;;;11.07;7.23;;;5.40;99.90;;;6.12;100.00;98878.53;5014276;28;20990;-75
2022/03/16 03:51:39;;;;;;;13.20;7.30;;;5.40;99.90;;;6.12;100.00;98889.72;5013739;28;20469;-75
2022/03/16 03:54:09;;;;;;;16.60;10.00;;;5.40;99.90;;;6.11;100.00;98880.31;5014015;28;20549;-75
2022/03/16 03:56:40;;;;;;;15.83;10.13;;;5.30;99.90;;;6.08;100.00;98881.41;5013400;28;20493;-75
2022/03/16 03:59:11;;;;;;;20.93;11.03;;;5.30;99.90;;;6.07;100.00;98886.75;5015758;28;20464;-75
2022/03/16 04:01:41;;;;;;;15.37;9.40;;;5.30;99.90;;;6.04;100.00;98880.03;5016846;28;21012;-75
2022/03/16 04:04:10;;;;;;;15.07;8.77;;;5.30;99.90;;;6.03;100.00;98888.81;5015674;28;20517;-82
2022/03/16 04:06:39;;;;;;;17.60;9.87;;;5.30;99.90;;;6.02;100.00;98891.53;5017035;28;20467;-75
2022/03/16 04:09:11;;;;;;;16.63;8.80;;;5.40;99.90;;;6.02;100.00;98891.53;5014211;28;20496;-75
2022/03/16 04:11:41;;;;;;;19.23;9.13;;;5.30;99.90;;;6.01;100.00;98898.47;5013025;28;20894;-75
2022/03/16 04:14:11;;;;;;;24.07;8.37;;;5.30;99.90;;;6.02;100.00;98899.31;5012860;28;20458;-75
2022/03/16 04:16:41;;;;;;;22.17;9.43;;;5.30;99.90;;;6.04;100.00;98897.38;5017619;28;21003;-80
2022/03/16 04:19:12;;;;;;;41.73;11.60;;;5.40;99.90;;;5.99;100.00;98897.00;5013168;28;20462;-75
2022/03/16 04:21:42;;;;;;;27.97;10.10;;;5.30;99.90;;;6.01;100.00;98897.66;5018089;28;20892;-76
2022/03/16 04:24:14;;;;;;;24.80;8.97;;;5.30;99.90;;;6.00;100.00;98903.84;5014207;28;20466;-76
2022/03/16 04:26:44;;;;;;;28.17;9.67;;;5.40;99.90;;;6.01;100.00;98901.06;5014472;28;20459;-81
2022/03/16 04:29:14;;;;;;;24.60;9.57;;;5.30;99.90;;;6.03;100.00;98894.00;5015398;28;20565;-76
2022/03/16 04:31:44;;;;;;;18.77;7.83;;;5.30;99.90;;;6.03;100.00;98903.56;5014170;28;20466;-75
2022/03/16 04:34:14;;;;;;;15.77;8.60;;;5.40;99.90;;;6.05;100.00;98901.63;5019239;28;20462;-76
2022/03/16 04:36:45;;;;;;;14.87;8.90;;;5.40;99.90;;;6.05;100.00;98893.84;5018307;28;20557;-76
2022/03/16 04:39:17;;;;;;;15.43;8.40;;;5.30;99.90;;;6.07;100.00;98895.31;5018205;28;20464;-76
2022/03/16 04:41:46;;;;;;;12.50;7.47;;;5.30;99.90;;;6.09;100.00;98897.81;5018814;28;20465;-76
2022/03/16 04:44:16;;;;;;;17.03;8.07;;;5.30;99.90;;;6.09;100.00;98900.41;5017956;28;20457;-76
2022/03/16 04:46:46;;;;;;;15.20;9.10;;;5.40;99.90;;;6.06;100.00;98898.09;5019229;28;20806;-76
2022/03/16 04:49:16;;;;;;;21.67;9.23;;;5.40;99.90;;;6.04;100.00;98905.16;5020256;28;20964;-76
2022/03/16 04:51:45;;;;;;;16.27;8.50;;;5.40;99.90;;;6.04;100.00;98894.78;5015355;28;20548;-76
2022/03/16 04:54:16;;;;;;;14.70;7.93;;;5.40;99.90;;;6.02;100.00;98897.53;5014117;28;20490;-76
2022/03/16 04:56:47;;;;;;;19.93;10.17;;;5.40;99.90;;;6.01;100.00;98895.06;5013995;28;20501;-76
2022/03/16 04:59:18;;;;;;;21.87;8.63;;;5.40;99.90;;;6.01;100.00;98895.88;5016798;28;20458;-75
2022/03/16 05:01:49;;;;;;;16.30;8.63;;;5.40;99.90;;;6.05;100.00;98902.44;5017825;28;20484;-75
2022/03/16 05:04:19;;;;;;;14.80;8.30;;;5.40;99.90;;;6.06;100.00;98893.72;5018041;28;20458;-75
2022/03/16 05:06:49;;;;;;;13.57;8.03;;;5.40;99.90;;;6.07;100.00;98902.31;5016824;28;20522;-75
2022/03/16 05:09:20;;;;;;;13.93;8.00;;;5.50;99.90;;;6.06;100.00;98893.72;5016570;28;20883;-75
2022/03/16 05:11:50;;;;;;;19.67;9.60;;;5.50;99.90;;;6.07;100.00;98891.94;5016428;28;20461;-75
2022/03/16 05:14:18;;;;;;;19.20;10.07;;;5.40;99.90;;;6.06;100.00;98883.34;5016129;28;20471;-75
2022/03/16 05:16:48;;;;;;;20.50;12.40;;;5.40;99.90;;;6.09;100.00;98890.00;5017173;28;20490;-76
2022/03/16 05:19:17;;;;;;;19.03;11.33;;;5.30;99.90;;;6.11;100.00;98882.91;5017339;28;20924;-76
2022/03/16 05:21:48;;;;;;;23.37;11.17;;;5.30;99.90;;;6.13;100.00;98878.41;5020093;28;20518;-76
2022/03/16 05:24:22;;;;;;;21.60;11.50;;;5.40;99.90;;;6.17;100.00;98884.97;5019023;28;20446;-75
2022/03/16 05:26:52;;;;;;;19.17;10.53;;;5.40;99.90;;;6.17;100.00;98887.56;5019341;28;20451;-76
2022/03/16 05:29:21;;;;;;;20.47;11.60;;;5.40;99.90;;;6.18;100.00;98904.75;5021162;28;20451;-75
2022/03/16 05:31:51;;;;;;;24.10;13.00;;;5.40;99.90;;;6.21;100.00;98890.69;5019725;28;20453;-76
2022/03/16 05:34:22;;;;;;;24.40;12.60;;;5.40;99.90;;;6.22;100.00;98893.13;5020076;28;20536;-75
2022/03/16 05:36:52;;;;;;;26.90;13.70;;;5.40;99.90;;;6.20;100.00;98895.06;5018522;28;20588;-75
2022/03/16 05:39:23;;;;;;;23.00;12.60;;;5.40;99.90;;;6.21;100.00;98901.91;5017848;28;20956;-75
2022/03/16 05:41:53;;;;;;;27.33;14.30;;;5.50;99.90;;;6.19;100.00;98892.59;5017051;28;20458;-75
2022/03/16 05:44:23;;;;;;;25.77;13.97;;;5.60;99.90;;;6.17;100.00;98897.94;5017479;28;20443;-75
2022/03/16 05:46:54;;;;;;;23.30;13.10;;;5.50;99.90;;;6.20;100.00;98889.06;5015023;28;20555;-76
2022/03/16 05:49:25;;;;;;;24.77;14.73;;;5.50;99.90;;;6.20;100.00;98889.88;5016989;28;20787;-76
2022/03/16 05:52:00;;;;;;;30.37;13.70;;;5.50;99.90;;;6.20;100.00;98887.28;5018693;28;20775;-76
2022/03/16 05:54:32;;;;;;;31.63;15.57;;;5.50;99.90;;;6.21;100.00;98891.53;5016926;28;20443;-75
2022/03/16 05:57:02;;;;;;;27.83;14.53;;;5.60;99.90;;;6.22;100.00;98893.13;5015492;28;20482;-76
2022/03/16 05:59:36;;;;;;;31.13;15.07;;;5.60;99.90;;;6.24;100.00;98890.41;5016370;28;20511;-75
2022/03/16 06:02:07;;;;;;;29.03;14.77;;;5.60;99.90;;;6.23;100.00;98893.97;5018445;28;20477;-75
2022/03/16 06:04:37;;;;;;;31.20;14.80;;;5.60;99.90;;;6.24;100.00;98896.44;5015705;28;20469;-75
2022/03/16 06:07:09;;;;;;;29.67;15.60;;;5.60;99.90;;;6.25;100.00;98900.66;5017430;28;20483;-75
2022/03/16 06:09:41;;;;;;;28.10;14.67;;;5.60;99.90;;;6.24;100.00;98895.59;5016712;28;20528;-76
2022/03/16 06:12:12;;;;;;;30.63;15.17;;;5.60;99.90;;;6.22;100.00;98887.94;5020054;28;20465;-75
2022/03/16 06:14:42;;;;;;;29.73;15.37;;;5.60;99.90;;;6.21;100.00;98890.69;5019905;28;20830;-75
2022/03/16 06:17:12;;;;;;;34.07;16.83;;;5.50;99.90;;;6.18;100.00;98894.38;5019619;28;21042;-75
2022/03/16 06:19:43;;;;;;;45.47;16.80;;;5.50;99.90;;;6.17;100.00;98894.53;5019752;28;20462;-75
2022/03/16 06:22:12;;;;;;;38.23;18.00;;;5.50;99.90;;;6.17;100.00;98897.94;5019730;28;20447;-75
2022/03/16 06:24:43;;;;;;;28.60;15.13;;;5.50;99.90;;;6.16;100.00;98896.28;5020190;28;20461;-75
2022/03/16 06:27:13;;;;;;;31.17;16.37;;;5.50;99.90;;;6.19;100.00;98903.81;5020137;28;20838;-76
2022/03/16 06:29:43;;;;;;;39.70;16.90;;;5.60;99.90;;;6.18;100.00;98909.94;5020431;28;20478;-75
2022/03/16 06:32:14;;;;;;;31.40;16.23;;;5.60;99.90;;;6.16;100.00;98900.66;5018324;28;20462;-76
2022/03/16 06:34:46;;;;;;;30.20;16.10;;;5.60;99.90;;;6.13;100.00;98899.16;5018852;28;20482;-75
2022/03/16 06:37:17;;;;;;;37.87;16.47;;;5.60;99.90;;;6.14;100.00;98913.81;5023771;28;20484;-75
2022/03/16 06:39:49;;;;;;;35.50;19.23;;;5.60;99.90;;;6.16;100.00;98911.88;5023152;28;20826;-76
2022/03/16 06:42:20;;;;;;;31.50;16.67;;;5.60;99.90;;;6.16;100.00;98917.06;5024392;28;20446;-75
2022/03/16 06:44:50;;;;;;;35.87;16.10;;;5.70;99.90;;;6.16;100.00;98918.84;5023465;28;21063;-75
2022/03/16 06:47:19;;;;;;;34.03;17.50;;;5.60;99.90;;;6.16;100.00;98917.06;5023846;28;20465;-75
2022/03/16 06:49:49;;;;;;;38.13;17.67;;;5.60;99.90;;;6.15;100.00;98918.00;5022787;28;20443;-76
2022/03/16 06:52:19;;;;;;;36.93;15.90;;;5.60;99.90;;;6.18;100.00;98928.13;5022542;28;20461;-75
2022/03/16 06:54:51;;;;;;;33.40;17.20;;;5.60;99.90;;;6.18;100.00;98928.13;5023483;28;20446;-75
2022/03/16 06:57:22;;;;;;;38.43;17.03;;;5.50;99.90;;;6.20;100.00;98928.00;5023515;28;20565;-75
2022/03/16 07:00:02;;;;;;;33.73;16.67;;;5.60;99.90;;;6.19;100.00;98934.13;5023440;28;20457;-75
2022/03/16 07:02:33;;;;;;;36.37;16.93;;;5.60;99.90;;;6.18;100.00;98938.50;5023243;28;20478;-76
2022/03/16 07:05:03;;;;;;;37.60;17.30;;;5.60;99.90;;;6.20;100.00;98947.00;5024281;28;20869;-75
2022/03/16 07:07:33;;;;;;;33.40;17.10;;;5.60;99.90;;;6.18;100.00;98943.69;5023774;28;20451;-76
2022/03/16 07:10:06;;;;;;;35.57;17.60;;;5.70;99.90;;;6.19;100.00;98945.34;5023439;28;20533;-75
2022/03/16 07:12:37;;;;;;;33.70;16.97;;;5.60;99.90;;;6.19;100.00;98955.75;5022538;28;20934;-76
2022/03/16 07:15:09;;;;;;;40.67;16.30;;;5.60;99.90;;;6.16;100.00;98953.41;5023795;28;20854;-75
2022/03/16 07:17:39;;;;;;;30.70;16.80;;;5.60;99.90;;;6.13;100.00;98948.50;5022293;28;20497;-75
2022/03/16 07:20:12;;;;;;;36.13;17.70;;;5.60;99.90;;;6.15;100.00;98950.94;5022394;28;20446;-75
2022/03/16 07:22:42;;;;;;;40.87;17.67;;;5.60;99.90;;;6.14;100.00;98952.75;5022409;28;20541;-76
2022/03/16 07:25:28;;;;;;;38.90;17.73;;;5.60;99.90;;;6.17;100.00;98962.03;5023021;28;20452;-75
2022/03/16 07:27:59;;;;;;;39.97;16.70;;;5.50;99.90;;;6.15;100.00;98963.94;5019789;28;20447;-76
2022/03/16 07:30:28;;;;;;;37.40;17.00;;;5.60;99.90;;;6.14;100.00;98963.13;5018560;28;20446;-75
2022/03/16 07:32:59;;;;;;;39.10;17.33;;;5.60;99.90;;;6.13;100.00;98961.47;5020475;28;20864;-75
2022/03/16 07:35:29;;;;;;;37.13;19.27;;;5.50;99.90;;;6.15;100.00;98953.53;5016303;28;20956;-75
2022/03/16 07:38:01;;;;;;;37.63;18.03;;;5.50;99.90;;;6.14;100.00;98965.72;5019344;28;20505;-75
2022/03/16 07:40:35;;;;;;;33.80;17.73;;;5.50;99.90;;;6.16;100.00;98960.38;5018076;28;20453;-76
2022/03/16 07:43:06;;;;;;;38.87;16.43;;;5.60;99.90;;;6.18;100.00;98953.28;5019128;28;20457;-75
2022/03/16 07:45:36;;;;;;;39.90;18.17;;;5.60;99.90;;;6.20;100.00;98956.56;5019316;28;20442;-75
2022/03/16 07:48:07;;;;;;;39.13;17.57;;;5.60;99.90;;;6.20;100.00;98957.38;5017784;28;20806;-75
2022/03/16 07:50:37;;;;;;;38.63;18.30;;;5.60;99.90;;;6.21;100.00;98953.84;5018384;28;20834;-75
2022/03/16 07:53:07;;;;;;;42.33;17.63;;;5.70;99.90;;;6.24;100.00;98960.53;5018181;28;20458;-75
2022/03/16 07:55:39;;;;;;;35.60;17.63;;;5.70;99.90;;;6.22;100.00;98949.44;5020616;28;20530;-75
2022/03/16 07:58:09;;;;;;;38.83;18.30;;;5.60;99.90;;;6.22;100.00;98950.25;5020062;28;20490;-75
2022/03/16 08:00:41;;;;;;;36.47;17.13;;;5.50;99.90;;;6.25;100.00;98955.19;5020536;28;20864;-75
2022/03/16 08:03:13;;;;;;;35.90;17.80;;;5.60;99.90;;;6.26;100.00;98954.22;5019928;28;20457;-76
2022/03/16 08:05:43;;;;;;;36.63;19.07;;;5.60;99.90;;;6.27;100.00;98958.47;5020926;28;20469;-75
2022/03/16 08:08:14;;;;;;;37.57;18.83;;;5.60;99.90;;;6.27;100.00;98955.88;5022398;28;20466;-76
2022/03/16 08:10:44;;;;;;;35.97;18.20;;;5.60;99.90;;;6.29;100.00;98951.34;5022968;28;20450;-76
2022/03/16 08:13:15;;;;;;;35.03;19.20;;;5.70;99.90;;;6.30;100.00;98945.22;5022364;28;20504;-75
2022/03/16 08:15:44;;;;;;;40.20;18.73;;;5.70;99.90;;;6.30;100.00;98953.00;5022309;28;20447;-75
2022/03/16 08:18:15;;;;;;;33.63;17.40;;;5.60;99.90;;;6.32;100.00;98940.69;5021927;28;20951;-75
2022/03/16 08:20:44;;;;;;;40.60;21.10;;;5.70;99.90;;;6.31;100.00;98939.06;5019949;28;20858;-75
2022/03/16 08:23:14;;;;;;;34.10;18.47;;;5.70;99.90;;;6.27;100.00;98939.47;5022632;28;20451;-75
2022/03/16 08:25:57;;;;;;;33.30;17.73;;;5.80;99.90;;;6.24;100.00;98953.56;5021644;28;20550;-75
2022/03/16 08:28:27;;;;;;;33.80;18.77;;;5.80;99.90;;;6.25;100.00;98952.59;5022016;28;20539;-75
2022/03/16 08:30:58;;;;;;;38.30;20.33;;;5.90;99.90;;;6.23;100.00;98957.09;5021895;28;20450;-75
2022/03/16 08:33:29;;;;;;;36.40;20.00;;;5.80;99.90;;;6.24;100.00;98963.13;5021988;28;20508;-75
2022/03/16 08:36:01;;;;;;;38.30;19.60;;;5.70;99.90;;;6.28;100.00;98954.91;5020670;28;20508;-76
2022/03/16 08:38:32;;;;;;;39.33;21.07;;;5.70;99.90;;;6.31;100.00;98949.47;5022332;28;20577;-75
2022/03/16 08:41:05;;;;;;;35.47;18.93;;;5.80;99.90;;;6.32;100.00;98942.47;5019299;28;20482;-75
2022/03/16 08:43:35;;;;;;;40.33;20.07;;;5.80;99.90;;;6.33;100.00;98944.94;5022519;28;20470;-75
2022/03/16 08:46:06;;;;;;;45.97;21.90;;;5.70;99.90;;;6.36;100.00;98946.44;5021652;28;20471;-75
2022/03/16 08:48:37;;;;;;;42.63;20.50;;;5.70;99.90;;;6.40;100.00;98938.22;5019449;28;20542;-76
2022/03/16 08:51:08;;;;;;;38.30;19.30;;;5.70;99.90;;;6.45;100.00;98943.03;5021351;28;21010;-75
2022/03/16 08:53:38;;;;;;;31.73;19.23;;;5.80;99.90;;;6.49;100.00;98945.19;5021810;28;20481;-76
2022/03/16 08:56:11;;;;;;;45.23;21.20;;;5.80;99.90;;;6.53;100.00;98940.53;5020742;28;20448;-76
2022/03/16 08:58:42;;;;;;;41.47;20.03;;;5.90;99.90;;;6.52;100.00;98931.94;5020222;28;20486;-75
2022/03/16 09:01:13;;;;;;;36.00;19.30;;;5.90;99.90;;;6.53;100.00;98933.56;5017880;28;20477;-76
2022/03/16 09:03:43;;;;;;;29.80;18.30;;;5.90;99.90;;;6.55;100.00;98936.84;5019960;28;20480;-75
2022/03/16 09:06:14;;;;;;;47.47;20.23;;;6.00;99.90;;;6.57;100.00;98950.50;5020623;28;20465;-76
2022/03/16 09:08:45;;;;;;;33.60;19.80;;;6.00;99.90;;;6.61;100.00;98942.44;5020912;28;20451;-76
2022/03/16 09:11:15;;;;;;;36.87;20.10;;;6.10;99.90;;;6.56;100.00;98943.66;5020665;28;20950;-76
2022/03/16 09:13:44;;;;;;;34.33;18.80;;;6.10;99.90;;;6.62;100.00;98941.50;5018366;28;20862;-76
2022/03/16 09:16:14;;;;;;;32.97;19.30;;;6.10;99.90;;;6.66;100.00;98937.66;5021710;28;20629;-76
2022/03/16 09:18:44;;;;;;;33.03;18.27;;;6.10;99.90;;;6.66;100.00;98938.47;5017636;28;20497;-76
2022/03/16 09:21:14;;;;;;;33.60;18.77;;;6.00;99.90;;;6.70;100.00;98931.22;5017020;28;20943;-75
2022/03/16 09:23:44;;;;;;;31.30;18.90;;;6.10;99.90;;;6.74;100.00;98928.19;5017573;28;21005;-76
2022/03/16 09:26:15;;;;;;;31.13;18.27;;;6.10;99.90;;;6.74;100.00;98927.34;5018128;28;20541;-76
2022/03/16 09:28:46;;;;;;;33.87;18.47;;;6.20;99.90;;;6.77;100.00;98925.28;5017344;28;20443;-76
2022/03/16 09:31:16;;;;;;;31.60;18.03;;;6.10;99.90;;;6.75;100.00;98931.59;5017718;28;20461;-76
2022/03/16 09:33:46;;;;;;;26.83;16.13;;;6.10;99.90;;;6.77;100.00;98934.91;5015184;28;20458;-76
2022/03/16 09:36:15;;;;;;;33.80;19.20;;;6.10;99.90;;;6.78;100.00;98931.31;5018006;28;20462;-76
2022/03/16 09:38:45;;;;;;;33.00;17.40;;;6.20;99.90;;;6.78;100.00;98933.91;5016328;28;20486;-76
2022/03/16 09:41:16;;;;;;;29.43;16.93;;;6.20;99.90;;;6.82;100.00;98937.88;5016046;28;20805;-76
2022/03/16 09:43:48;;;;;;;32.67;18.80;;;6.20;99.90;;;6.85;100.00;98927.19;5016890;28;20867;-76
2022/03/16 09:46:22;;;;;;;28.57;16.40;;;6.40;99.90;;;6.87;100.00;98936.47;5017782;28;20463;-76
2022/03/16 09:48:52;;;;;;;34.40;17.70;;;6.40;99.90;;;6.88;100.00;98922.53;5015555;28;20453;-76
2022/03/16 09:51:23;;;;;;;37.50;18.57;;;6.30;99.90;;;6.89;100.00;98920.75;5015094;28;21175;-76
2022/03/16 09:53:53;;;;;;;38.50;20.20;;;6.40;99.90;;;6.94;100.00;98927.16;5018105;28;20886;-76
2022/03/16 09:56:24;;;;;;;30.67;18.10;;;6.30;99.90;;;7.00;100.00;98936.19;5017692;28;21004;-75
2022/03/16 09:58:54;;;;;;;40.63;19.77;;;6.40;99.90;;;7.05;100.00;98920.94;5018442;28;20490;-76
2022/03/16 10:01:25;;;;;;;30.87;17.07;;;6.50;99.90;;;7.07;100.00;98921.66;5015999;28;20475;-76
2022/03/16 10:03:59;;;;;;;30.60;17.77;;;6.50;99.90;;;7.08;100.00;98918.06;5018759;28;20470;-76
2022/03/16 10:06:28;;;;;;;32.30;17.93;;;6.50;99.90;;;7.11;100.00;98922.19;5017928;28;21036;-76
2022/03/16 10:14:40;;;;;;;28.03;17.27;;;6.50;99.90;;;7.15;100.00;98918.34;5019733;28;20526;-76
2022/03/16 10:19:57;;;;;;;28.73;17.73;;;6.50;99.90;;;7.19;100.00;98920.47;5018731;28;20481;-75
2022/03/16 10:22:31;;;;;;;31.50;17.73;;;6.50;99.90;;;7.23;100.00;98916.63;5018172;28;20458;-76
2022/03/16 10:25:03;;;;;;;30.57;18.10;;;6.60;99.90;;;7.26;100.00;98902.50;5020372;28;20470;-75
2022/03/16 10:27:37;;;;;;;30.23;18.60;;;6.60;99.90;;;7.28;100.00;98917.03;5020169;28;20524;-76
2022/03/16 10:30:09;;;;;;;31.03;17.83;;;6.70;99.90;;;7.32;100.00;98930.56;5019562;28;20474;-76
2022/03/16 10:32:53;;;;;;;34.70;20.30;;;6.70;99.90;;;7.31;100.00;98932.34;5018716;28;21016;-76
2022/03/16 10:35:25;;;;;;;31.93;18.43;;;6.80;99.90;;;7.25;100.00;98922.53;5018616;28;20478;-75
2022/03/16 10:38:08;;;;;;;33.60;19.43;;;6.80;99.90;;;7.27;100.00;98917.16;5019882;28;20823;-76
2022/03/16 10:40:38;;;;;;;28.53;18.40;;;6.80;99.90;;;7.26;100.00;98921.56;5019081;28;20858;-76